createdAt,value
2022-11-08T00:02:50.916Z,14.10
2022-11-08T00:13:11.949Z,14.00
2022-11-08T00:23:19.896Z,14.20
2022-11-08T00:33:23.762Z,14.30
2022-11-08T00:43:28.965Z,14.40
2022-11-08T00:53:33.019Z,14.50
2022-11-08T01:03:37.993Z,14.50
2022-11-08T01:13:41.945Z,14.50
2022-11-08T01:23:47.321Z,14.60
2022-11-08T01:33:53.775Z,14.50
2022-11-08T01:44:00.177Z,14.60
2022-11-08T01:54:08.390Z,14.70
2022-11-08T02:04:15.256Z,14.60
2022-11-08T02:14:19.365Z,14.90
2022-11-08T02:24:24.763Z,15.00
2022-11-08T02:34:31.180Z,14.90
2022-11-08T02:44:36.217Z,14.70
2022-11-08T02:54:40.466Z,14.70
2022-11-08T03:04:45.539Z,14.60
2022-11-08T03:14:49.322Z,14.50
2022-11-08T03:24:54.467Z,14.50
2022-11-08T03:34:59.871Z,14.60
2022-11-08T03:45:05.402Z,14.70
2022-11-08T03:55:10.862Z,14.40
2022-11-08T04:05:17.166Z,14.30
2022-11-08T04:15:23.591Z,14.20
2022-11-08T04:25:33.977Z,14.30
2022-11-08T04:35:38.928Z,14.30
2022-11-08T04:45:44.013Z,14.20
2022-11-08T04:55:47.769Z,14.20
2022-11-08T05:05:52.954Z,14.20
2022-11-08T05:16:00.408Z,14.20
2022-11-08T05:26:05.641Z,14.40
2022-11-08T05:36:11.912Z,14.30
2022-11-08T05:46:20.411Z,14.50
2022-11-08T05:56:24.370Z,14.70
2022-11-08T06:06:29.485Z,14.90
2022-11-08T06:16:33.350Z,14.90
2022-11-08T06:26:38.467Z,15.10
2022-11-08T06:36:42.176Z,15.40
2022-11-08T06:46:47.735Z,15.60
2022-11-08T06:56:51.719Z,15.80
2022-11-08T07:06:57.480Z,16.00
2022-11-08T07:17:01.306Z,16.50
2022-11-08T07:27:09.441Z,17.00
2022-11-08T07:37:13.394Z,17.50
2022-11-08T07:47:18.778Z,18.00
2022-11-08T07:57:22.778Z,18.20
2022-11-08T08:07:27.984Z,18.20
2022-11-08T08:17:31.713Z,18.60
2022-11-08T08:27:36.749Z,18.70
2022-11-08T08:37:40.594Z,18.90
2022-11-08T08:47:45.657Z,19.20
2022-11-08T08:57:50.393Z,19.30
2022-11-08T09:07:57.637Z,19.30
2022-11-08T09:18:01.618Z,19.30
2022-11-08T09:28:07.163Z,19.10
2022-11-08T09:38:11.266Z,19.40
2022-11-08T09:48:24.292Z,19.60
2022-11-08T09:58:34.980Z,20.00
2022-11-08T10:08:47.441Z,20.10
2022-11-08T10:19:12.763Z,20.20
2022-11-08T10:29:22.110Z,20.60
2022-11-08T10:39:28.467Z,20.80
2022-11-08T10:49:35.707Z,21.70
2022-11-08T10:59:42.984Z,21.80
2022-11-08T11:09:48.303Z,21.80
2022-11-08T11:19:55.762Z,21.70
2022-11-08T11:30:23.277Z,22.50
2022-11-08T11:40:35.366Z,23.50
2022-11-08T11:50:41.962Z,23.60
2022-11-08T12:00:53.788Z,23.60
2022-11-08T12:11:10.925Z,24.30
2022-11-08T12:21:16.264Z,24.20
2022-11-08T12:31:27.959Z,24.30
2022-11-08T12:41:40.925Z,23.50
2022-11-08T12:51:58.586Z,23.50
2022-11-08T13:02:05.080Z,23.30
2022-11-08T13:12:26.957Z,22.90
2022-11-08T13:23:00.687Z,22.90
2022-11-08T13:33:14.528Z,23.20
2022-11-08T13:43:27.655Z,23.50
2022-11-08T13:53:59.337Z,23.40
2022-11-08T14:04:02.988Z,23.70
2022-11-08T14:14:37.306Z,25.00
2022-11-08T14:24:40.994Z,25.40
2022-11-08T14:34:46.610Z,25.60
2022-11-08T14:44:53.110Z,25.70
2022-11-08T14:55:05.783Z,26.20
2022-11-08T15:05:29.210Z,25.60
2022-11-08T15:15:35.705Z,25.10
2022-11-08T15:25:40.011Z,22.80
2022-11-08T15:35:48.757Z,22.00
2022-11-08T15:45:55.324Z,21.60
2022-11-08T15:56:02.670Z,21.10
2022-11-08T16:06:06.758Z,20.90
2022-11-08T16:16:15.481Z,20.70
2022-11-08T16:26:20.942Z,20.30
2022-11-08T16:36:28.365Z,19.90
2022-11-08T16:46:32.337Z,19.90
2022-11-08T16:56:37.262Z,19.70
2022-11-08T17:06:41.106Z,19.80
2022-11-08T17:16:46.941Z,19.50
2022-11-08T17:26:53.739Z,19.40
2022-11-08T17:36:59.163Z,19.40
2022-11-08T17:47:02.828Z,19.30
2022-11-08T17:57:07.971Z,19.30
2022-11-08T18:07:12.098Z,19.30
2022-11-08T18:17:18.059Z,19.00
2022-11-08T18:27:21.850Z,18.40
2022-11-08T18:37:27.093Z,18.30
2022-11-08T18:47:33.606Z,18.10
2022-11-08T18:57:38.772Z,17.90
2022-11-08T19:07:42.595Z,17.70
2022-11-08T19:17:52.310Z,17.40
2022-11-08T19:27:58.109Z,17.30
2022-11-08T19:38:03.234Z,17.00
2022-11-08T19:48:08.428Z,16.90
2022-11-08T19:58:13.951Z,16.60
2022-11-08T20:08:18.132Z,16.40
2022-11-08T20:18:23.662Z,16.50
2022-11-08T20:28:27.478Z,16.40
2022-11-08T20:38:33.225Z,16.40
2022-11-08T20:48:37.035Z,16.10
2022-11-08T20:58:43.740Z,15.90
2022-11-08T21:09:16.573Z,15.80
2022-11-08T21:19:14.072Z,15.70
2022-11-08T21:29:18.821Z,15.80
2022-11-08T21:39:24.430Z,15.80
2022-11-08T21:49:28.661Z,15.50
2022-11-08T21:59:34.420Z,15.70
2022-11-08T22:09:38.125Z,15.60
2022-11-08T22:19:44.261Z,15.50
2022-11-08T22:29:48.401Z,15.50
2022-11-08T22:39:54.782Z,15.50
2022-11-08T22:49:59.776Z,15.60
2022-11-08T23:00:10.351Z,15.50
2022-11-08T23:10:15.588Z,15.40
2022-11-08T23:20:41.118Z,15.20
2022-11-08T23:31:02.870Z,15.10
2022-11-08T23:41:25.839Z,15.00
2022-11-08T23:51:31.394Z,15.00
